sensor_id;sensor_type;location;lat;lon;timestamp;pressure;altitude;pressure_sealevel;temperature;humidity
69171;BME280;56279;47.902;12.308;2023-02-16T00:01:21;96435.72;;;-0.56;97.04
69171;BME280;56279;47.902;12.308;2023-02-16T00:03:22;96432.78;;;-0.53;96.97
69171;BME280;56279;47.902;12.308;2023-02-16T00:05:32;96434.41;;;-0.52;96.75
69171;BME280;56279;47.902;12.308;2023-02-16T00:07:33;96422.06;;;-0.50;97.24
69171;BME280;56279;47.902;12.308;2023-02-16T00:09:34;96425.09;;;-0.46;97.03
69171;BME280;56279;47.902;12.308;2023-02-16T00:11:37;96422.13;;;-0.43;96.76
69171;BME280;56279;47.902;12.308;2023-02-16T00:13:58;96414.81;;;-0.40;97.00
69171;BME280;56279;47.902;12.308;2023-02-16T00:16:00;96407.47;;;-0.36;97.10
69171;BME280;56279;47.902;12.308;2023-02-16T00:18:02;96405.34;;;-0.33;96.70
69171;BME280;56279;47.902;12.308;2023-02-16T00:20:13;96407.53;;;-0.30;96.99
69171;BME280;56279;47.902;12.308;2023-02-16T00:22:16;96406.50;;;-0.35;96.51
69171;BME280;56279;47.902;12.308;2023-02-16T00:24:17;96417.94;;;-0.44;96.69
69171;BME280;56279;47.902;12.308;2023-02-16T00:26:24;96410.88;;;-0.50;96.60
69171;BME280;56279;47.902;12.308;2023-02-16T00:28:26;96413.94;;;-0.47;96.93
69171;BME280;56279;47.902;12.308;2023-02-16T00:30:28;96417.16;;;-0.45;96.64
69171;BME280;56279;47.902;12.308;2023-02-16T00:32:30;96415.72;;;-0.47;96.52
69171;BME280;56279;47.902;12.308;2023-02-16T00:34:39;96418.84;;;-0.52;96.64
69171;BME280;56279;47.902;12.308;2023-02-16T00:36:40;96415.00;;;-0.56;96.70
69171;BME280;56279;47.902;12.308;2023-02-16T00:38:42;96411.78;;;-0.58;97.23
69171;BME280;56279;47.902;12.308;2023-02-16T00:40:43;96405.81;;;-0.58;96.82
69171;BME280;56279;47.902;12.308;2023-02-16T00:42:45;96410.19;;;-0.59;97.45
69171;BME280;56279;47.902;12.308;2023-02-16T00:44:49;96409.56;;;-0.61;97.47
69171;BME280;56279;47.902;12.308;2023-02-16T00:46:51;96408.16;;;-0.63;97.34
69171;BME280;56279;47.902;12.308;2023-02-16T00:48:53;96411.09;;;-0.66;96.95
69171;BME280;56279;47.902;12.308;2023-02-16T00:50:54;96404.81;;;-0.72;97.38
69171;BME280;56279;47.902;12.308;2023-02-16T00:52:56;96407.34;;;-0.79;97.15
69171;BME280;56279;47.902;12.308;2023-02-16T00:55:09;96400.28;;;-0.85;97.32
69171;BME280;56279;47.902;12.308;2023-02-16T00:57:15;96402.81;;;-0.91;96.93
69171;BME280;56279;47.902;12.308;2023-02-16T00:59:19;96402.69;;;-0.98;97.22
69171;BME280;56279;47.902;12.308;2023-02-16T01:01:24;96400.81;;;-1.04;97.26
69171;BME280;56279;47.902;12.308;2023-02-16T01:03:28;96397.16;;;-1.09;97.30
69171;BME280;56279;47.902;12.308;2023-02-16T01:05:31;96391.53;;;-1.13;97.13
69171;BME280;56279;47.902;12.308;2023-02-16T01:07:34;96394.13;;;-1.13;97.77
69171;BME280;56279;47.902;12.308;2023-02-16T01:09:53;96394.28;;;-1.14;97.52
69171;BME280;56279;47.902;12.308;2023-02-16T01:12:15;96396.09;;;-1.15;97.23
69171;BME280;56279;47.902;12.308;2023-02-16T01:14:18;96388.84;;;-1.19;97.67
69171;BME280;56279;47.902;12.308;2023-02-16T01:16:21;96398.94;;;-1.24;97.34
69171;BME280;56279;47.902;12.308;2023-02-16T01:18:23;96405.19;;;-1.33;97.42
69171;BME280;56279;47.902;12.308;2023-02-16T01:20:26;96403.91;;;-1.38;97.67
69171;BME280;56279;47.902;12.308;2023-02-16T01:22:28;96403.66;;;-1.43;97.36
69171;BME280;56279;47.902;12.308;2023-02-16T01:24:34;96417.13;;;-1.47;97.62
69171;BME280;56279;47.902;12.308;2023-02-16T01:26:43;96397.72;;;-1.51;97.54
69171;BME280;56279;47.902;12.308;2023-02-16T01:28:50;96398.09;;;-1.54;97.57
69171;BME280;56279;47.902;12.308;2023-02-16T01:30:52;96399.50;;;-1.52;98.30
69171;BME280;56279;47.902;12.308;2023-02-16T01:32:53;96400.16;;;-1.50;97.72
69171;BME280;56279;47.902;12.308;2023-02-16T01:34:55;96394.78;;;-1.48;97.74
69171;BME280;56279;47.902;12.308;2023-02-16T01:36:56;96391.22;;;-1.47;97.86
69171;BME280;56279;47.902;12.308;2023-02-16T01:38:58;96392.81;;;-1.46;97.20
69171;BME280;56279;47.902;12.308;2023-02-16T01:43:57;96391.66;;;-1.44;97.27
69171;BME280;56279;47.902;12.308;2023-02-16T01:46:10;96392.63;;;-1.45;97.31
69171;BME280;56279;47.902;12.308;2023-02-16T01:48:20;96380.88;;;-1.47;97.26
69171;BME280;56279;47.902;12.308;2023-02-16T01:50:26;96389.81;;;-1.50;97.24
69171;BME280;56279;47.902;12.308;2023-02-16T01:52:33;96377.00;;;-1.51;97.52
69171;BME280;56279;47.902;12.308;2023-02-16T01:54:47;96372.22;;;-1.54;97.54
69171;BME280;56279;47.902;12.308;2023-02-16T01:56:55;96374.00;;;-1.55;97.37
69171;BME280;56279;47.902;12.308;2023-02-16T01:59:14;96365.84;;;-1.52;97.86
69171;BME280;56279;47.902;12.308;2023-02-16T02:02:02;96364.00;;;-1.43;97.43
69171;BME280;56279;47.902;12.308;2023-02-16T02:04:18;96360.69;;;-1.37;97.94
69171;BME280;56279;47.902;12.308;2023-02-16T02:06:47;96365.28;;;-1.24;97.67
69171;BME280;56279;47.902;12.308;2023-02-16T02:09:01;96346.88;;;-1.15;97.77
69171;BME280;56279;47.902;12.308;2023-02-16T02:13:57;96345.16;;;-0.93;97.15
69171;BME280;56279;47.902;12.308;2023-02-16T02:16:00;96348.47;;;-0.85;97.08
69171;BME280;56279;47.902;12.308;2023-02-16T02:18:02;96340.97;;;-0.80;96.89
69171;BME280;56279;47.902;12.308;2023-02-16T02:34:12;96326.09;;;-0.56;97.40
69171;BME280;56279;47.902;12.308;2023-02-16T02:36:44;96327.31;;;-0.52;97.01
69171;BME280;56279;47.902;12.308;2023-02-16T02:41:31;96328.63;;;-0.42;96.98
69171;BME280;56279;47.902;12.308;2023-02-16T02:43:58;96331.94;;;-0.48;96.84
69171;BME280;56279;47.902;12.308;2023-02-16T02:46:08;96330.47;;;-0.57;97.17
69171;BME280;56279;47.902;12.308;2023-02-16T02:48:11;96340.94;;;-0.65;97.08
69171;BME280;56279;47.902;12.308;2023-02-16T02:50:39;96324.69;;;-0.74;96.79
69171;BME280;56279;47.902;12.308;2023-02-16T02:52:43;96335.53;;;-0.85;97.09
69171;BME280;56279;47.902;12.308;2023-02-16T02:54:45;96330.44;;;-0.93;97.65
69171;BME280;56279;47.902;12.308;2023-02-16T02:59:32;96330.28;;;-1.06;97.73
69171;BME280;56279;47.902;12.308;2023-02-16T03:01:57;96327.41;;;-1.11;97.89
69171;BME280;56279;47.902;12.308;2023-02-16T03:04:00;96332.13;;;-1.14;97.83
69171;BME280;56279;47.902;12.308;2023-02-16T03:06:16;96333.31;;;-1.17;98.28
69171;BME280;56279;47.902;12.308;2023-02-16T03:08:23;96347.59;;;-1.21;97.57
69171;BME280;56279;47.902;12.308;2023-02-16T03:10:27;96344.28;;;-1.29;97.35
69171;BME280;56279;47.902;12.308;2023-02-16T03:12:47;96344.75;;;-1.41;97.64
69171;BME280;56279;47.902;12.308;2023-02-16T03:14:57;96345.63;;;-1.48;97.57
69171;BME280;56279;47.902;12.308;2023-02-16T03:17:05;96358.47;;;-1.55;98.03
69171;BME280;56279;47.902;12.308;2023-02-16T03:19:26;96363.34;;;-1.60;98.28
69171;BME280;56279;47.902;12.308;2023-02-16T03:21:46;96361.47;;;-1.66;97.86
69171;BME280;56279;47.902;12.308;2023-02-16T03:24:08;96355.66;;;-1.68;98.28
69171;BME280;56279;47.902;12.308;2023-02-16T03:26:29;96354.34;;;-1.64;97.77
69171;BME280;56279;47.902;12.308;2023-02-16T03:28:51;96363.00;;;-1.57;98.39
69171;BME280;56279;47.902;12.308;2023-02-16T03:31:16;96363.25;;;-1.52;97.84
69171;BME280;56279;47.902;12.308;2023-02-16T03:33:21;96364.88;;;-1.51;97.73
69171;BME280;56279;47.902;12.308;2023-02-16T03:35:24;96370.06;;;-1.51;97.60
69171;BME280;56279;47.902;12.308;2023-02-16T03:37:26;96364.94;;;-1.59;97.48
69171;BME280;56279;47.902;12.308;2023-02-16T03:39:28;96374.75;;;-1.69;97.27
69171;BME280;56279;47.902;12.308;2023-02-16T03:41:34;96377.41;;;-1.77;98.10
69171;BME280;56279;47.902;12.308;2023-02-16T03:43:38;96384.25;;;-1.84;97.56
69171;BME280;56279;47.902;12.308;2023-02-16T03:45:41;96381.38;;;-1.89;97.77
69171;BME280;56279;47.902;12.308;2023-02-16T03:47:43;96371.56;;;-1.93;98.08
69171;BME280;56279;47.902;12.308;2023-02-16T03:49:45;96374.03;;;-2.00;97.97
69171;BME280;56279;47.902;12.308;2023-02-16T03:51:47;96384.91;;;-2.04;98.02
69171;BME280;56279;47.902;12.308;2023-02-16T03:53:49;96388.00;;;-2.09;97.99
69171;BME280;56279;47.902;12.308;2023-02-16T03:55:51;96390.28;;;-2.14;97.71
69171;BME280;56279;47.902;12.308;2023-02-16T03:57:52;96395.16;;;-2.19;97.58
69171;BME280;56279;47.902;12.308;2023-02-16T03:59:53;96392.47;;;-2.26;97.48
69171;BME280;56279;47.902;12.308;2023-02-16T04:01:54;96399.13;;;-2.31;98.13
69171;BME280;56279;47.902;12.308;2023-02-16T04:03:55;96401.88;;;-2.33;97.87
69171;BME280;56279;47.902;12.308;2023-02-16T04:05:57;96399.47;;;-2.34;97.88
69171;BME280;56279;47.902;12.308;2023-02-16T04:07:58;96403.50;;;-2.32;97.96
69171;BME280;56279;47.902;12.308;2023-02-16T04:09:59;96407.66;;;-2.31;98.35
69171;BME280;56279;47.902;12.308;2023-02-16T04:12:01;96411.69;;;-2.28;97.75
69171;BME280;56279;47.902;12.308;2023-02-16T04:14:21;96407.00;;;-2.25;98.17
69171;BME280;56279;47.902;12.308;2023-02-16T04:16:22;96399.88;;;-2.23;98.20
69171;BME280;56279;47.902;12.308;2023-02-16T04:18:23;96405.00;;;-2.15;97.89
69171;BME280;56279;47.902;12.308;2023-02-16T04:20:28;96397.53;;;-2.10;98.11
69171;BME280;56279;47.902;12.308;2023-02-16T04:22:29;96410.13;;;-2.06;98.03
69171;BME280;56279;47.902;12.308;2023-02-16T04:24:31;96404.31;;;-2.08;97.78
69171;BME280;56279;47.902;12.308;2023-02-16T04:26:32;96406.91;;;-2.08;97.53
69171;BME280;56279;47.902;12.308;2023-02-16T04:28:33;96411.25;;;-2.09;97.40
69171;BME280;56279;47.902;12.308;2023-02-16T04:30:34;96415.47;;;-2.08;97.57
69171;BME280;56279;47.902;12.308;2023-02-16T04:32:36;96415.09;;;-2.05;97.65
69171;BME280;56279;47.902;12.308;2023-02-16T04:34:37;96413.16;;;-2.03;97.70
69171;BME280;56279;47.902;12.308;2023-02-16T04:36:38;96419.13;;;-2.02;97.84
69171;BME280;56279;47.902;12.308;2023-02-16T04:38:41;96406.38;;;-2.04;97.82
69171;BME280;56279;47.902;12.308;2023-02-16T04:40:42;96415.09;;;-2.05;97.96
69171;BME280;56279;47.902;12.308;2023-02-16T04:42:44;96411.75;;;-2.05;97.83
69171;BME280;56279;47.902;12.308;2023-02-16T04:44:45;96419.66;;;-2.07;97.97
69171;BME280;56279;47.902;12.308;2023-02-16T04:46:46;96418.41;;;-2.11;97.52
69171;BME280;56279;47.902;12.308;2023-02-16T04:48:47;96418.72;;;-2.14;97.76
69171;BME280;56279;47.902;12.308;2023-02-16T04:50:49;96412.13;;;-2.17;97.58
69171;BME280;56279;47.902;12.308;2023-02-16T04:52:51;96419.41;;;-2.20;97.73
69171;BME280;56279;47.902;12.308;2023-02-16T04:54:52;96415.41;;;-2.23;97.75
69171;BME280;56279;47.902;12.308;2023-02-16T04:56:54;96412.19;;;-2.25;98.22
69171;BME280;56279;47.902;12.308;2023-02-16T04:58:55;96411.19;;;-2.24;97.63
69171;BME280;56279;47.902;12.308;2023-02-16T05:00:56;96405.25;;;-2.24;97.57
69171;BME280;56279;47.902;12.308;2023-02-16T05:02:59;96409.09;;;-2.20;97.98
69171;BME280;56279;47.902;12.308;2023-02-16T05:05:00;96412.22;;;-2.10;97.96
69171;BME280;56279;47.902;12.308;2023-02-16T05:07:01;96412.00;;;-2.00;98.22
69171;BME280;56279;47.902;12.308;2023-02-16T05:09:03;96417.75;;;-1.90;97.85
69171;BME280;56279;47.902;12.308;2023-02-16T05:11:04;96418.34;;;-1.80;97.95
69171;BME280;56279;47.902;12.308;2023-02-16T05:13:24;96407.41;;;-1.68;97.65
69171;BME280;56279;47.902;12.308;2023-02-16T05:15:44;96407.16;;;-1.58;97.29
69171;BME280;56279;47.902;12.308;2023-02-16T05:17:46;96411.03;;;-1.54;97.26
69171;BME280;56279;47.902;12.308;2023-02-16T05:19:55;96407.25;;;-1.52;97.47
69171;BME280;56279;47.902;12.308;2023-02-16T05:21:57;96410.50;;;-1.50;96.92
69171;BME280;56279;47.902;12.308;2023-02-16T05:24:09;96416.94;;;-1.46;96.92
69171;BME280;56279;47.902;12.308;2023-02-16T05:26:10;96418.53;;;-1.45;96.59
69171;BME280;56279;47.902;12.308;2023-02-16T05:28:11;96424.97;;;-1.41;97.08
69171;BME280;56279;47.902;12.308;2023-02-16T05:30:13;96423.97;;;-1.40;96.65
69171;BME280;56279;47.902;12.308;2023-02-16T05:32:15;96429.97;;;-1.39;96.59
69171;BME280;56279;47.902;12.308;2023-02-16T05:34:17;96433.53;;;-1.40;97.10
69171;BME280;56279;47.902;12.308;2023-02-16T05:36:19;96442.47;;;-1.43;96.79
69171;BME280;56279;47.902;12.308;2023-02-16T05:38:20;96438.06;;;-1.42;96.92
69171;BME280;56279;47.902;12.308;2023-02-16T05:40:21;96434.97;;;-1.38;97.37
69171;BME280;56279;47.902;12.308;2023-02-16T05:42:22;96434.63;;;-1.34;97.07
69171;BME280;56279;47.902;12.308;2023-02-16T05:44:24;96439.28;;;-1.30;97.07
69171;BME280;56279;47.902;12.308;2023-02-16T05:46:27;96430.34;;;-1.27;96.84
69171;BME280;56279;47.902;12.308;2023-02-16T05:48:29;96423.81;;;-1.23;96.96
69171;BME280;56279;47.902;12.308;2023-02-16T05:50:31;96428.47;;;-1.19;97.29
69171;BME280;56279;47.902;12.308;2023-02-16T05:52:34;96426.00;;;-1.12;96.60
69171;BME280;56279;47.902;12.308;2023-02-16T05:54:35;96428.22;;;-1.09;96.80
69171;BME280;56279;47.902;12.308;2023-02-16T05:56:37;96427.88;;;-1.06;96.49
69171;BME280;56279;47.902;12.308;2023-02-16T05:58:38;96426.72;;;-1.04;96.92
69171;BME280;56279;47.902;12.308;2023-02-16T06:00:41;96428.59;;;-0.98;96.49
69171;BME280;56279;47.902;12.308;2023-02-16T06:02:42;96423.69;;;-0.93;96.48
69171;BME280;56279;47.902;12.308;2023-02-16T06:04:43;96428.16;;;-0.87;96.30
69171;BME280;56279;47.902;12.308;2023-02-16T06:06:44;96420.03;;;-0.84;96.10
69171;BME280;56279;47.902;12.308;2023-02-16T06:08:46;96423.22;;;-0.82;96.19
69171;BME280;56279;47.902;12.308;2023-02-16T06:10:50;96425.31;;;-0.77;96.12
69171;BME280;56279;47.902;12.308;2023-02-16T06:12:52;96421.53;;;-0.75;95.96
69171;BME280;56279;47.902;12.308;2023-02-16T06:14:53;96424.94;;;-0.74;96.00
69171;BME280;56279;47.902;12.308;2023-02-16T06:16:55;96428.53;;;-0.75;95.79
69171;BME280;56279;47.902;12.308;2023-02-16T06:18:59;96434.69;;;-0.76;96.31
69171;BME280;56279;47.902;12.308;2023-02-16T06:21:00;96428.53;;;-0.75;95.78
69171;BME280;56279;47.902;12.308;2023-02-16T06:23:02;96437.88;;;-0.74;96.66
69171;BME280;56279;47.902;12.308;2023-02-16T06:25:03;96434.13;;;-0.72;96.39
69171;BME280;56279;47.902;12.308;2023-02-16T06:27:05;96432.16;;;-0.70;96.51
69171;BME280;56279;47.902;12.308;2023-02-16T06:29:06;96441.03;;;-0.64;96.02
69171;BME280;56279;47.902;12.308;2023-02-16T06:31:07;96430.13;;;-0.59;95.98
69171;BME280;56279;47.902;12.308;2023-02-16T06:33:10;96433.78;;;-0.54;96.51
69171;BME280;56279;47.902;12.308;2023-02-16T06:35:11;96435.66;;;-0.48;95.90
69171;BME280;56279;47.902;12.308;2023-02-16T06:37:12;96434.91;;;-0.42;95.52
69171;BME280;56279;47.902;12.308;2023-02-16T06:39:13;96436.00;;;-0.36;95.55
69171;BME280;56279;47.902;12.308;2023-02-16T06:41:15;96439.66;;;-0.31;95.89
69171;BME280;56279;47.902;12.308;2023-02-16T06:43:31;96435.50;;;-0.25;95.71
69171;BME280;56279;47.902;12.308;2023-02-16T06:45:37;96438.81;;;-0.17;95.79
69171;BME280;56279;47.902;12.308;2023-02-16T06:47:39;96430.31;;;-0.11;94.68
69171;BME280;56279;47.902;12.308;2023-02-16T06:49:40;96431.19;;;-0.04;95.26
69171;BME280;56279;47.902;12.308;2023-02-16T06:51:41;96440.81;;;0.03;95.08
69171;BME280;56279;47.902;12.308;2023-02-16T06:53:42;96439.47;;;0.07;94.48
69171;BME280;56279;47.902;12.308;2023-02-16T06:55:44;96449.09;;;0.13;94.59
69171;BME280;56279;47.902;12.308;2023-02-16T06:57:46;96474.09;;;0.14;94.37
69171;BME280;56279;47.902;12.308;2023-02-16T06:59:47;96475.00;;;0.06;94.56
69171;BME280;56279;47.902;12.308;2023-02-16T07:01:49;96471.88;;;-0.04;94.16
69171;BME280;56279;47.902;12.308;2023-02-16T07:03:52;96472.78;;;-0.12;95.04
69171;BME280;56279;47.902;12.308;2023-02-16T07:05:53;96476.31;;;-0.19;95.16
69171;BME280;56279;47.902;12.308;2023-02-16T07:07:56;96482.81;;;-0.23;95.14
69171;BME280;56279;47.902;12.308;2023-02-16T07:09:57;96478.16;;;-0.28;95.38
69171;BME280;56279;47.902;12.308;2023-02-16T07:11:58;96479.53;;;-0.32;95.07
69171;BME280;56279;47.902;12.308;2023-02-16T07:14:00;96481.69;;;-0.35;94.77
69171;BME280;56279;47.902;12.308;2023-02-16T07:16:05;96470.03;;;-0.39;95.41
69171;BME280;56279;47.902;12.308;2023-02-16T07:18:06;96480.59;;;-0.41;95.34
69171;BME280;56279;47.902;12.308;2023-02-16T07:20:08;96478.97;;;-0.42;95.56
69171;BME280;56279;47.902;12.308;2023-02-16T07:22:09;96478.00;;;-0.41;95.26
69171;BME280;56279;47.902;12.308;2023-02-16T07:24:10;96484.81;;;-0.40;95.57
69171;BME280;56279;47.902;12.308;2023-02-16T07:26:12;96482.84;;;-0.38;95.03
69171;BME280;56279;47.902;12.308;2023-02-16T07:28:13;96487.66;;;-0.35;95.46
69171;BME280;56279;47.902;12.308;2023-02-16T07:30:14;96472.75;;;-0.33;94.74
69171;BME280;56279;47.902;12.308;2023-02-16T07:32:16;96476.13;;;-0.32;95.03
69171;BME280;56279;47.902;12.308;2023-02-16T07:34:17;96478.56;;;-0.31;95.08
69171;BME280;56279;47.902;12.308;2023-02-16T07:36:19;96471.41;;;-0.29;95.18
69171;BME280;56279;47.902;12.308;2023-02-16T07:38:20;96474.06;;;-0.22;95.30
69171;BME280;56279;47.902;12.308;2023-02-16T07:40:21;96471.72;;;-0.17;94.66
69171;BME280;56279;47.902;12.308;2023-02-16T07:42:22;96474.41;;;-0.11;94.83
69171;BME280;56279;47.902;12.308;2023-02-16T07:44:26;96467.69;;;-0.05;94.62
69171;BME280;56279;47.902;12.308;2023-02-16T07:46:35;96480.53;;;0.03;94.85
69171;BME280;56279;47.902;12.308;2023-02-16T07:48:57;96474.44;;;0.11;94.52
69171;BME280;56279;47.902;12.308;2023-02-16T07:50:58;96482.28;;;0.17;95.07
69171;BME280;56279;47.902;12.308;2023-02-16T07:53:01;96479.75;;;0.24;94.78
69171;BME280;56279;47.902;12.308;2023-02-16T07:55:02;96475.44;;;0.31;94.04
69171;BME280;56279;47.902;12.308;2023-02-16T07:57:05;96479.72;;;0.38;94.29
69171;BME280;56279;47.902;12.308;2023-02-16T07:59:06;96484.34;;;0.43;94.12
69171;BME280;56279;47.902;12.308;2023-02-16T08:01:10;96474.41;;;0.46;94.01
69171;BME280;56279;47.902;12.308;2023-02-16T08:03:11;96490.22;;;0.51;93.94
69171;BME280;56279;47.902;12.308;2023-02-16T08:05:12;96481.25;;;0.54;94.03
69171;BME280;56279;47.902;12.308;2023-02-16T08:07:15;96488.47;;;0.58;93.74
69171;BME280;56279;47.902;12.308;2023-02-16T08:09:17;96490.16;;;0.66;94.38
69171;BME280;56279;47.902;12.308;2023-02-16T08:11:21;96490.41;;;0.71;93.62
69171;BME280;56279;47.902;12.308;2023-02-16T08:13:23;96492.09;;;0.79;94.07
69171;BME280;56279;47.902;12.308;2023-02-16T08:15:25;96488.72;;;0.85;93.24
69171;BME280;56279;47.902;12.308;2023-02-16T08:17:27;96498.38;;;0.91;93.11
69171;BME280;56279;47.902;12.308;2023-02-16T08:19:28;96488.03;;;0.97;92.88
69171;BME280;56279;47.902;12.308;2023-02-16T08:21:32;96497.66;;;1.03;93.16
69171;BME280;56279;47.902;12.308;2023-02-16T08:23:33;96501.31;;;1.09;92.89
69171;BME280;56279;47.902;12.308;2023-02-16T08:25:38;96501.34;;;1.15;93.14
69171;BME280;56279;47.902;12.308;2023-02-16T08:27:39;96502.22;;;1.22;93.17
69171;BME280;56279;47.902;12.308;2023-02-16T08:29:40;96499.47;;;1.30;92.80
69171;BME280;56279;47.902;12.308;2023-02-16T08:31:48;96493.31;;;1.38;92.37
69171;BME280;56279;47.902;12.308;2023-02-16T08:33:54;96499.97;;;1.47;91.92
69171;BME280;56279;47.902;12.308;2023-02-16T08:35:56;96496.41;;;1.55;92.06
69171;BME280;56279;47.902;12.308;2023-02-16T08:37:59;96495.25;;;1.64;92.37
69171;BME280;56279;47.902;12.308;2023-02-16T08:40:04;96490.31;;;1.75;91.68
69171;BME280;56279;47.902;12.308;2023-02-16T08:42:10;96491.59;;;1.86;91.24
69171;BME280;56279;47.902;12.308;2023-02-16T08:44:13;96481.00;;;1.94;91.32
69171;BME280;56279;47.902;12.308;2023-02-16T08:46:16;96490.25;;;2.03;91.78
69171;BME280;56279;47.902;12.308;2023-02-16T08:48:19;96483.06;;;2.12;91.32
69171;BME280;56279;47.902;12.308;2023-02-16T08:50:21;96477.50;;;2.21;91.21
69171;BME280;56279;47.902;12.308;2023-02-16T08:52:22;96485.53;;;2.33;90.21
69171;BME280;56279;47.902;12.308;2023-02-16T08:54:28;96490.97;;;2.44;89.65
69171;BME280;56279;47.902;12.308;2023-02-16T08:56:31;96496.41;;;2.56;89.85
69171;BME280;56279;47.902;12.308;2023-02-16T08:58:36;96491.41;;;2.67;89.61
69171;BME280;56279;47.902;12.308;2023-02-16T09:00:37;96495.22;;;2.78;89.54
69171;BME280;56279;47.902;12.308;2023-02-16T09:02:39;96490.22;;;2.90;89.37
69171;BME280;56279;47.902;12.308;2023-02-16T09:04:40;96495.63;;;3.01;88.53
69171;BME280;56279;47.902;12.308;2023-02-16T09:06:43;96490.84;;;3.11;88.65
69171;BME280;56279;47.902;12.308;2023-02-16T09:08:50;96502.28;;;3.23;88.09
69171;BME280;56279;47.902;12.308;2023-02-16T09:10:52;96497.63;;;3.38;87.58
69171;BME280;56279;47.902;12.308;2023-02-16T09:12:54;96494.00;;;3.53;87.63
69171;BME280;56279;47.902;12.308;2023-02-16T09:14:56;96501.00;;;3.65;87.26
69171;BME280;56279;47.902;12.308;2023-02-16T09:16:58;96501.59;;;3.80;87.17
69171;BME280;56279;47.902;12.308;2023-02-16T09:19:00;96494.06;;;3.97;86.69
69171;BME280;56279;47.902;12.308;2023-02-16T09:21:03;96495.84;;;4.09;86.15
69171;BME280;56279;47.902;12.308;2023-02-16T09:23:08;96497.63;;;4.22;85.58
69171;BME280;56279;47.902;12.308;2023-02-16T09:25:10;96495.75;;;4.36;85.64
69171;BME280;56279;47.902;12.308;2023-02-16T09:27:11;96494.25;;;4.46;84.98
69171;BME280;56279;47.902;12.308;2023-02-16T09:29:13;96491.78;;;4.58;84.58
69171;BME280;56279;47.902;12.308;2023-02-16T09:31:15;96496.56;;;4.67;83.90
69171;BME280;56279;47.902;12.308;2023-02-16T09:33:21;96494.06;;;4.79;83.43
69171;BME280;56279;47.902;12.308;2023-02-16T09:35:23;96488.94;;;4.90;82.96
69171;BME280;56279;47.902;12.308;2023-02-16T09:37:25;96493.28;;;5.03;82.50
69171;BME280;56279;47.902;12.308;2023-02-16T09:39:26;96502.06;;;5.15;82.13
69171;BME280;56279;47.902;12.308;2023-02-16T09:43:50;96488.31;;;5.44;81.58
69171;BME280;56279;47.902;12.308;2023-02-16T09:45:55;96494.38;;;5.63;81.24
69171;BME280;56279;47.902;12.308;2023-02-16T09:47:58;96497.44;;;5.78;81.04
69171;BME280;56279;47.902;12.308;2023-02-16T09:50:04;96495.28;;;5.93;80.96
69171;BME280;56279;47.902;12.308;2023-02-16T09:56:31;96492.50;;;6.24;80.68
69171;BME280;56279;47.902;12.308;2023-02-16T09:58:48;96488.00;;;6.32;80.71
69171;BME280;56279;47.902;12.308;2023-02-16T10:03:23;96489.19;;;6.47;80.55
69171;BME280;56279;47.902;12.308;2023-02-16T10:09:55;96484.34;;;6.62;79.50
69171;BME280;56279;47.902;12.308;2023-02-16T10:12:03;96482.19;;;6.71;79.21
69171;BME280;56279;47.902;12.308;2023-02-16T10:16:50;96487.38;;;6.89;78.54
69171;BME280;56279;47.902;12.308;2023-02-16T10:18:54;96494.13;;;6.96;78.24
69171;BME280;56279;47.902;12.308;2023-02-16T10:20:59;96482.28;;;7.06;77.79
69171;BME280;56279;47.902;12.308;2023-02-16T10:25:12;96488.13;;;7.31;76.61
69171;BME280;56279;47.902;12.308;2023-02-16T10:27:15;96479.38;;;7.48;76.65
69171;BME280;56279;47.902;12.308;2023-02-16T10:29:19;96480.84;;;7.56;76.48
69171;BME280;56279;47.902;12.308;2023-02-16T10:31:30;96488.25;;;7.59;76.22
69171;BME280;56279;47.902;12.308;2023-02-16T10:33:39;96484.63;;;7.60;76.29
69171;BME280;56279;47.902;12.308;2023-02-16T10:35:47;96485.41;;;7.60;76.79
69171;BME280;56279;47.902;12.308;2023-02-16T10:38:10;96480.94;;;7.61;76.60
69171;BME280;56279;47.902;12.308;2023-02-16T10:45:03;96478.91;;;7.63;74.08
69171;BME280;56279;47.902;12.308;2023-02-16T10:47:34;96471.34;;;7.66;73.95
69171;BME280;56279;47.902;12.308;2023-02-16T10:49:38;96473.75;;;7.68;73.70
69171;BME280;56279;47.902;12.308;2023-02-16T10:51:41;96461.66;;;7.67;73.42
69171;BME280;56279;47.902;12.308;2023-02-16T10:54:02;96463.22;;;7.68;72.89
69171;BME280;56279;47.902;12.308;2023-02-16T10:58:40;96465.84;;;7.80;72.18
69171;BME280;56279;47.902;12.308;2023-02-16T11:03:03;96460.50;;;7.86;71.73
69171;BME280;56279;47.902;12.308;2023-02-16T11:05:34;96462.88;;;7.88;71.46
69171;BME280;56279;47.902;12.308;2023-02-16T11:07:51;96456.47;;;7.95;71.67
69171;BME280;56279;47.902;12.308;2023-02-16T11:09:55;96454.50;;;8.02;71.23
69171;BME280;56279;47.902;12.308;2023-02-16T11:11:59;96456.19;;;8.08;71.79
69171;BME280;56279;47.902;12.308;2023-02-16T11:16:21;96455.34;;;8.19;71.08
69171;BME280;56279;47.902;12.308;2023-02-16T11:18:42;96453.63;;;8.25;70.86
69171;BME280;56279;47.902;12.308;2023-02-16T11:22:48;96451.56;;;8.39;70.50
69171;BME280;56279;47.902;12.308;2023-02-16T11:24:49;96437.78;;;8.48;70.32
69171;BME280;56279;47.902;12.308;2023-02-16T11:27:04;96433.19;;;8.55;70.22
69171;BME280;56279;47.902;12.308;2023-02-16T11:29:17;96438.28;;;8.62;70.23
69171;BME280;56279;47.902;12.308;2023-02-16T11:31:35;96436.09;;;8.70;69.48
69171;BME280;56279;47.902;12.308;2023-02-16T11:33:37;96429.41;;;8.79;68.91
69171;BME280;56279;47.902;12.308;2023-02-16T11:35:41;96431.16;;;8.90;68.90
69171;BME280;56279;47.902;12.308;2023-02-16T11:37:43;96433.16;;;9.00;68.40
69171;BME280;56279;47.902;12.308;2023-02-16T11:39:49;96430.19;;;9.13;67.82
69171;BME280;56279;47.902;12.308;2023-02-16T11:41:55;96423.81;;;9.26;66.36
69171;BME280;56279;47.902;12.308;2023-02-16T11:43:58;96420.84;;;9.39;65.48
69171;BME280;56279;47.902;12.308;2023-02-16T11:46:11;96414.38;;;9.46;65.49
69171;BME280;56279;47.902;12.308;2023-02-16T11:48:25;96413.22;;;9.59;65.04
69171;BME280;56279;47.902;12.308;2023-02-16T11:50:34;96407.34;;;9.73;63.39
69171;BME280;56279;47.902;12.308;2023-02-16T11:52:38;96404.09;;;9.88;62.73
69171;BME280;56279;47.902;12.308;2023-02-16T11:54:47;96398.72;;;10.00;62.68